Time;durP1;ratioP1;P1;durP2;ratioP2;P2;SDS_P1;SDS_P2;PMS_P1;PMS_P2;Temp;Humidity;BMP_temperature;BMP_pressure;BME280_temperature;BME280_humidity;BME280_pressure;Samples;Min_cycle;Max_cycle;Signal;HPM_P1;HPM_P2
2022/03/30 00:00:56;;;;;;;0.50;0.50;;;13.00;97.80;;;;;;4972490;28;20122;-63
2022/03/30 00:03:22;;;;;;;2.47;0.73;;;12.90;98.00;;;;;;4972485;28;20402;-63
2022/03/30 00:05:48;;;;;;;0.47;0.47;;;12.90;97.90;;;;;;4972244;28;20037;-63
2022/03/30 00:08:14;;;;;;;0.95;0.82;;;12.90;98.00;;;;;;4972040;28;20031;-63
2022/03/30 00:10:40;;;;;;;2.28;1.20;;;12.80;98.20;;;;;;4973410;28;20078;-63
2022/03/30 00:13:08;;;;;;;3.42;1.50;;;12.70;98.20;;;;;;4972063;28;20125;-63
2022/03/30 00:15:34;;;;;;;0.80;0.77;;;12.70;98.20;;;;;;4955932;28;20031;-63
2022/03/30 00:18:00;;;;;;;0.82;0.82;;;12.70;98.40;;;;;;4972159;28;20100;-63
2022/03/30 00:20:26;;;;;;;0.10;0.10;;;12.70;98.50;;;;;;4973410;28;20031;-63
2022/03/30 00:22:52;;;;;;;5.63;0.60;;;12.60;98.60;;;;;;4972213;28;20038;-63
2022/03/30 00:25:20;;;;;;;1.02;1.00;;;12.50;98.80;;;;;;4973226;28;20494;-63
2022/03/30 00:27:46;;;;;;;0.50;0.50;;;12.50;99.00;;;;;;4972706;28;20031;-63
2022/03/30 00:30:20;;;;;;;0.55;0.55;;;12.50;99.00;;;;;;4972113;28;20104;-63
2022/03/30 00:32:47;;;;;;;0.73;0.73;;;12.50;99.00;;;;;;4971887;28;20042;-63
2022/03/30 00:35:14;;;;;;;3.53;1.13;;;12.40;98.90;;;;;;4971794;28;20030;-63
2022/03/30 00:37:41;;;;;;;0.55;0.55;;;12.40;99.00;;;;;;4971368;28;20434;-63
2022/03/30 00:40:13;;;;;;;1.35;1.25;;;12.30;99.00;;;;;;4972806;28;20109;-63
2022/03/30 00:42:38;;;;;;;;;;;12.30;99.10;;;;;;4972106;28;20127;-63
2022/03/30 00:45:15;;;;;;;0.30;0.30;;;12.30;99.10;;;;;;4987751;28;19914;-63
2022/03/30 00:47:42;;;;;;;0.30;0.30;;;12.20;99.00;;;;;;4972526;28;20030;-63
2022/03/30 00:50:10;;;;;;;1.42;1.33;;;12.10;99.00;;;;;;4971811;28;20035;-63
2022/03/30 00:52:36;;;;;;;0.32;0.32;;;12.10;99.10;;;;;;4972467;28;20027;-63
2022/03/30 00:55:05;;;;;;;0.10;0.10;;;12.10;99.00;;;;;;4982964;23;20602;-61
2022/03/30 00:57:32;;;;;;;0.60;0.60;;;12.10;99.00;;;;;;4945603;28;20035;-61
2022/03/30 00:59:58;;;;;;;5.43;1.30;;;12.00;99.10;;;;;;4920430;29;20046;-61
2022/03/30 01:02:25;;;;;;;0.00;0.00;;;12.00;99.30;;;;;;4953292;29;20066;-61
2022/03/30 01:04:51;;;;;;;0.32;0.32;;;12.00;99.40;;;;;;4958602;28;20019;-61
2022/03/30 01:07:17;;;;;;;1.55;0.60;;;12.00;99.20;;;;;;4962834;28;20109;-61
2022/03/30 01:09:43;;;;;;;1.23;1.15;;;12.00;98.90;;;;;;4972453;28;20111;-61
2022/03/30 01:12:10;;;;;;;0.10;0.10;;;12.00;98.90;;;;;;4972142;28;20049;-61
2022/03/30 01:14:36;;;;;;;0.77;0.68;;;12.00;99.00;;;;;;4970617;28;20387;-61
2022/03/30 01:17:04;;;;;;;0.80;0.80;;;12.00;99.00;;;;;;4935236;29;20063;-61
2022/03/30 01:19:32;;;;;;;0.88;0.88;;;11.90;99.00;;;;;;4935980;29;20023;-61
2022/03/30 01:21:59;;;;;;;0.28;0.28;;;11.80;99.10;;;;;;4952657;29;20082;-62
2022/03/30 01:24:26;;;;;;;0.30;0.30;;;11.80;99.30;;;;;;4963172;28;20023;-61
2022/03/30 01:26:53;;;;;;;0.98;0.80;;;11.90;99.20;;;;;;4971531;28;20479;-61
2022/03/30 01:34:49;;;;;;;2.25;2.05;;;11.70;99.90;;;;;;4972275;28;20200;-61
2022/03/30 01:37:15;;;;;;;0.00;0.00;;;11.70;99.90;;;;;;4970303;28;20022;-61
2022/03/30 01:39:42;;;;;;;0.90;0.55;;;11.80;99.90;;;;;;4970341;28;20023;-61
2022/03/30 01:42:09;;;;;;;0.80;0.57;;;11.80;99.90;;;;;;4955025;28;20035;-61
2022/03/30 01:44:37;;;;;;;0.10;0.10;;;11.70;99.90;;;;;;4952244;28;20031;-61
2022/03/30 01:47:03;;;;;;;0.40;0.40;;;11.70;99.90;;;;;;4934706;29;20031;-61
2022/03/30 01:49:29;;;;;;;0.20;0.20;;;11.70;99.90;;;;;;4934926;29;20039;-61
2022/03/30 01:51:58;;;;;;;0.20;0.20;;;11.80;99.90;;;;;;4952426;28;20039;-61
2022/03/30 01:54:26;;;;;;;2.40;1.42;;;11.80;99.50;;;;;;4952633;28;20031;-61
2022/03/30 01:56:55;;;;;;;0.43;0.43;;;11.70;99.70;;;;;;4934999;29;20075;-61
2022/03/30 01:59:22;;;;;;;2.67;1.88;;;11.70;99.90;;;;;;4935508;29;20377;-61
2022/03/30 02:01:48;;;;;;;0.00;0.00;;;11.80;99.20;;;;;;4934876;29;20027;-61
2022/03/30 02:04:15;;;;;;;0.38;0.38;;;11.80;99.20;;;;;;4952202;28;20038;-61
2022/03/30 02:06:41;;;;;;;3.88;1.98;;;11.70;99.20;;;;;;4934428;29;20024;-61
2022/03/30 02:09:08;;;;;;;2.15;1.48;;;11.70;99.30;;;;;;4934740;29;20035;-61
2022/03/30 02:11:34;;;;;;;0.38;0.38;;;11.70;99.30;;;;;;4935206;29;20447;-61
2022/03/30 02:14:01;;;;;;;0.75;0.75;;;11.80;99.60;;;;;;4952285;29;20030;-61
2022/03/30 02:16:27;;;;;;;1.20;1.15;;;11.80;99.60;;;;;;4969188;28;20039;-61
2022/03/30 02:18:53;;;;;;;0.10;0.10;;;11.60;99.90;;;;;;4971420;28;20022;-61
2022/03/30 02:21:19;;;;;;;1.73;1.52;;;11.60;99.90;;;;;;4954366;28;20027;-61
2022/03/30 02:23:47;;;;;;;0.22;0.22;;;11.70;99.90;;;;;;4971128;28;20077;-62
2022/03/30 02:26:14;;;;;;;1.42;1.33;;;11.60;99.90;;;;;;4953939;28;20035;-61
2022/03/30 02:28:44;;;;;;;0.08;0.08;;;11.50;99.90;;;;;;4969721;28;20106;-61
2022/03/30 02:31:13;;;;;;;0.30;0.30;;;11.40;99.90;;;;;;4971524;28;20079;-61
2022/03/30 02:33:39;;;;;;;0.57;0.57;;;11.30;99.90;;;;;;4971013;28;20031;-61
2022/03/30 02:36:05;;;;;;;0.35;0.35;;;11.20;99.90;;;;;;4971159;28;20027;-61
2022/03/30 02:38:31;;;;;;;0.90;0.22;;;11.10;99.90;;;;;;4970177;28;20109;-61
2022/03/30 02:40:56;;;;;;;0.75;0.75;;;11.00;99.90;;;;;;4954029;28;20177;-61
2022/03/30 02:43:22;;;;;;;1.40;1.30;;;11.00;99.90;;;;;;4954013;28;20039;-62
2022/03/30 02:45:50;;;;;;;0.38;0.38;;;10.90;99.90;;;;;;4954093;28;20037;-61
2022/03/30 02:48:18;;;;;;;0.75;0.55;;;10.80;99.90;;;;;;4969413;28;20037;-61
2022/03/30 02:50:57;;;;;;;0.22;0.22;;;10.70;99.90;;;;;;4971383;28;20062;-61
2022/03/30 02:53:24;;;;;;;0.25;0.17;;;10.70;99.90;;;;;;4971377;28;20035;-61
2022/03/30 02:55:50;;;;;;;0.88;0.45;;;10.70;99.90;;;;;;4970857;28;20031;-61
2022/03/30 02:58:16;;;;;;;1.27;1.08;;;10.60;99.90;;;;;;4969786;28;20093;-61
2022/03/30 03:00:43;;;;;;;0.40;0.40;;;10.50;99.90;;;;;;4971611;28;20479;-61
2022/03/30 03:03:09;;;;;;;0.20;0.20;;;10.50;99.90;;;;;;4974210;28;20153;-61
2022/03/30 03:05:38;;;;;;;0.30;0.30;;;10.40;99.90;;;;;;4974649;28;20023;-61
2022/03/30 03:08:10;;;;;;;7.88;2.45;;;10.40;99.90;;;;;;4972826;28;20034;-61
2022/03/30 03:10:40;;;;;;;0.65;0.65;;;10.30;99.90;;;;;;4974374;28;20058;-61
2022/03/30 03:13:06;;;;;;;0.00;0.00;;;10.20;99.90;;;;;;4974402;28;20118;-61
2022/03/30 03:15:34;;;;;;;0.10;0.10;;;10.20;99.90;;;;;;4947042;29;20039;-61
2022/03/30 03:18:04;;;;;;;1.83;1.73;;;10.10;99.90;;;;;;4937644;29;20035;-61
2022/03/30 03:20:32;;;;;;;0.40;0.40;;;10.10;99.90;;;;;;4955075;29;20083;-61
2022/03/30 03:23:02;;;;;;;0.43;0.32;;;10.10;99.90;;;;;;4922043;29;20040;-61
2022/03/30 03:25:29;;;;;;;0.47;0.47;;;10.10;99.90;;;;;;4938157;29;20027;-61
2022/03/30 03:27:56;;;;;;;0.30;0.30;;;10.00;99.90;;;;;;4937837;29;20113;-61
2022/03/30 03:30:22;;;;;;;6.72;1.85;;;9.90;99.90;;;;;;4954704;29;20043;-61
2022/03/30 03:32:49;;;;;;;1.35;0.65;;;10.00;99.90;;;;;;4937461;29;20054;-61
2022/03/30 03:35:15;;;;;;;1.20;1.10;;;9.80;99.90;;;;;;4954568;29;20031;-61
2022/03/30 03:37:41;;;;;;;0.30;0.30;;;9.70;99.90;;;;;;4954441;29;20023;-62
2022/03/30 03:40:08;;;;;;;1.10;0.85;;;9.70;99.90;;;;;;4954789;29;20123;-61
2022/03/30 03:42:35;;;;;;;0.45;0.45;;;9.60;99.90;;;;;;4937594;29;20125;-60
2022/03/30 03:45:06;;;;;;;0.75;0.73;;;9.60;99.90;;;;;;4937363;29;20027;-61
2022/03/30 03:47:33;;;;;;;0.93;0.50;;;9.60;99.90;;;;;;4954486;29;20031;-61
2022/03/30 03:49:59;;;;;;;0.22;0.22;;;9.60;99.90;;;;;;4954487;29;20043;-61
2022/03/30 03:52:25;;;;;;;0.20;0.20;;;9.50;99.90;;;;;;4937193;29;20038;-61
2022/03/30 03:54:51;;;;;;;0.43;0.43;;;9.50;99.90;;;;;;4954254;28;20031;-61
2022/03/30 03:57:17;;;;;;;0.30;0.30;;;9.50;99.90;;;;;;4954191;28;20031;-61
2022/03/30 03:59:43;;;;;;;0.50;0.50;;;9.50;99.90;;;;;;4954167;28;20035;-62
2022/03/30 04:02:09;;;;;;;0.77;0.77;;;9.50;99.90;;;;;;4953657;28;20051;-62
2022/03/30 04:04:35;;;;;;;0.15;0.15;;;9.50;99.90;;;;;;4936511;29;20613;-62
2022/03/30 04:07:01;;;;;;;2.47;1.45;;;9.50;99.90;;;;;;4953780;29;20419;-62
2022/03/30 04:09:27;;;;;;;1.15;1.05;;;9.50;99.90;;;;;;4929979;28;20053;-61
2022/03/30 04:11:53;;;;;;;1.30;1.20;;;9.40;99.90;;;;;;4946784;28;20526;-61
2022/03/30 04:14:19;;;;;;;1.20;0.70;;;9.40;99.90;;;;;;4956481;28;20041;-62
2022/03/30 04:16:47;;;;;;;0.10;0.10;;;9.40;99.90;;;;;;4944882;28;20055;-60
2022/03/30 04:19:13;;;;;;;0.20;0.20;;;9.30;99.90;;;;;;4975472;28;20036;-61
2022/03/30 04:21:39;;;;;;;1.63;1.25;;;9.30;99.90;;;;;;4959936;28;20114;-62
2022/03/30 04:24:05;;;;;;;0.08;0.08;;;9.30;99.90;;;;;;4970690;28;20020;-61
2022/03/30 04:26:31;;;;;;;3.33;1.38;;;9.10;99.90;;;;;;4952969;28;20034;-61
2022/03/30 04:28:57;;;;;;;0.10;0.10;;;9.10;99.90;;;;;;4952005;29;20125;-61
2022/03/30 04:31:22;;;;;;;0.50;0.50;;;9.20;99.90;;;;;;4953452;29;20066;-60
2022/03/30 04:33:48;;;;;;;0.45;0.45;;;9.20;99.90;;;;;;4953332;28;20035;-61
2022/03/30 04:36:14;;;;;;;0.63;0.63;;;9.30;99.90;;;;;;4956508;28;20394;-60
2022/03/30 04:38:40;;;;;;;0.55;0.52;;;9.30;99.90;;;;;;4962130;28;20085;-61
2022/03/30 04:41:06;;;;;;;1.35;1.25;;;9.20;99.90;;;;;;4963646;28;20038;-62
2022/03/30 04:43:32;;;;;;;0.70;0.70;;;9.30;99.90;;;;;;4966108;28;20023;-61
2022/03/30 04:45:58;;;;;;;0.20;0.20;;;9.30;99.90;;;;;;4968974;28;20054;-61
2022/03/30 04:48:23;;;;;;;1.17;0.95;;;9.40;99.90;;;;;;4970667;28;20058;-61
2022/03/30 04:50:50;;;;;;;4.55;1.90;;;9.40;99.90;;;;;;4971556;28;20126;-60
2022/03/30 04:53:16;;;;;;;0.80;0.80;;;9.30;99.90;;;;;;4972332;28;20129;-61
2022/03/30 04:55:42;;;;;;;2.28;1.38;;;9.30;99.90;;;;;;4972025;28;20064;-61
2022/03/30 04:58:09;;;;;;;0.00;0.00;;;9.20;99.90;;;;;;4970585;28;20041;-59
2022/03/30 05:00:35;;;;;;;0.47;0.45;;;9.20;99.90;;;;;;4967110;28;20042;-57
2022/03/30 05:03:01;;;;;;;0.38;0.38;;;9.20;99.90;;;;;;4972190;28;20038;-58
2022/03/30 05:05:27;;;;;;;6.93;1.20;;;9.10;99.90;;;;;;4969444;28;20091;-60
2022/03/30 05:07:55;;;;;;;0.38;0.38;;;9.10;99.90;;;;;;4965965;28;20023;-58
2022/03/30 05:10:21;;;;;;;0.22;0.22;;;9.00;99.90;;;;;;4971648;28;20189;-61
2022/03/30 05:12:47;;;;;;;0.10;0.10;;;9.10;99.90;;;;;;4954339;28;20035;-59
2022/03/30 05:15:13;;;;;;;2.92;1.30;;;9.00;99.90;;;;;;4971342;28;20046;-59
2022/03/30 05:17:44;;;;;;;1.25;1.02;;;9.10;99.90;;;;;;4971575;28;20109;-59
2022/03/30 05:20:13;;;;;;;3.33;1.38;;;9.20;99.90;;;;;;4968672;28;20394;-61
2022/03/30 05:22:38;;;;;;;0.52;0.50;;;9.00;99.90;;;;;;4979144;28;20184;-60
2022/03/30 05:25:05;;;;;;;0.10;0.10;;;9.00;99.90;;;;;;4942100;28;20621;-58
2022/03/30 05:27:34;;;;;;;0.30;0.30;;;9.10;99.90;;;;;;4967015;28;20031;-57
2022/03/30 05:30:02;;;;;;;8.98;2.30;;;9.10;99.90;;;;;;4971597;28;20023;-58
2022/03/30 05:32:29;;;;;;;0.25;0.20;;;9.10;99.90;;;;;;4954242;28;20031;-58
2022/03/30 05:34:55;;;;;;;0.20;0.20;;;9.10;99.90;;;;;;4964288;28;20118;-65
2022/03/30 05:37:21;;;;;;;1.10;1.08;;;9.00;99.90;;;;;;4956687;28;20157;-58
2022/03/30 05:39:47;;;;;;;0.95;0.93;;;9.00;99.90;;;;;;4965375;28;20050;-58
2022/03/30 05:42:14;;;;;;;4.47;2.00;;;8.90;99.90;;;;;;4961182;28;20038;-59
2022/03/30 05:44:41;;;;;;;0.10;0.10;;;8.90;99.90;;;;;;4953850;28;20133;-57
2022/03/30 05:47:08;;;;;;;1.33;1.23;;;8.80;99.90;;;;;;4970760;28;20041;-59
2022/03/30 05:49:38;;;;;;;1.58;1.30;;;8.80;99.90;;;;;;4935041;29;20155;-61
2022/03/30 05:52:05;;;;;;;0.50;0.50;;;8.80;99.90;;;;;;4951916;28;20110;-62
2022/03/30 05:54:31;;;;;;;7.63;2.30;;;8.80;99.90;;;;;;4935346;29;20069;-58
2022/03/30 05:57:00;;;;;;;0.68;0.68;;;8.70;99.90;;;;;;4951528;29;20074;-58
2022/03/30 05:59:27;;;;;;;0.73;0.73;;;8.70;99.90;;;;;;4935406;29;20030;-59
2022/03/30 06:01:53;;;;;;;1.25;1.20;;;8.70;99.90;;;;;;4962674;28;20489;-58
2022/03/30 06:04:19;;;;;;;0.28;0.28;;;8.60;99.90;;;;;;4971213;28;20030;-59
2022/03/30 06:06:45;;;;;;;1.52;1.42;;;8.60;99.90;;;;;;4969824;28;20018;-60
2022/03/30 06:09:11;;;;;;;1.80;1.70;;;8.60;99.90;;;;;;4971064;28;20031;-59
2022/03/30 06:11:36;;;;;;;1.15;1.13;;;8.60;99.90;;;;;;4971643;28;20110;-60
2022/03/30 06:14:02;;;;;;;9.07;1.40;;;8.50;99.90;;;;;;4969921;28;20077;-58
2022/03/30 06:16:28;;;;;;;1.67;1.58;;;8.50;99.90;;;;;;4971222;28;20031;-59
2022/03/30 06:18:54;;;;;;;1.55;1.05;;;8.50;99.90;;;;;;4970962;28;20058;-60
2022/03/30 06:21:21;;;;;;;3.45;2.63;;;8.50;99.90;;;;;;4953232;28;20030;-59
2022/03/30 06:23:47;;;;;;;1.75;1.60;;;8.50;99.90;;;;;;4950248;28;20047;-58
2022/03/30 06:26:13;;;;;;;2.25;1.17;;;8.50;99.90;;;;;;4951669;29;20114;-60
2022/03/30 06:28:39;;;;;;;10.73;4.13;;;8.40;99.90;;;;;;4934546;29;20191;-60
2022/03/30 06:31:09;;;;;;;0.75;0.75;;;8.40;99.90;;;;;;4951600;29;20118;-60
2022/03/30 06:33:35;;;;;;;6.68;2.17;;;8.40;99.90;;;;;;4952033;29;20110;-57
2022/03/30 06:36:01;;;;;;;0.57;0.57;;;8.40;99.90;;;;;;4954240;28;20086;-59
2022/03/30 06:38:27;;;;;;;1.48;1.25;;;8.40;99.90;;;;;;4954325;28;20035;-60
2022/03/30 06:40:53;;;;;;;0.65;0.65;;;8.40;99.90;;;;;;4955384;28;20038;-60
2022/03/30 06:43:19;;;;;;;1.48;1.15;;;8.30;99.90;;;;;;4954630;28;20063;-58
2022/03/30 06:45:46;;;;;;;0.63;0.63;;;8.30;99.90;;;;;;4954331;28;20033;-61
2022/03/30 06:48:12;;;;;;;0.38;0.38;;;8.30;99.90;;;;;;4969554;28;20565;-59
2022/03/30 06:50:38;;;;;;;0.80;0.80;;;8.30;99.90;;;;;;4973414;28;20097;-60
2022/03/30 06:53:09;;;;;;;3.55;1.70;;;8.20;99.90;;;;;;4974032;28;20676;-60
2022/03/30 06:55:38;;;;;;;1.35;1.25;;;8.30;99.90;;;;;;4974429;23;20042;-61
2022/03/30 06:58:05;;;;;;;0.95;0.95;;;8.30;99.90;;;;;;4993056;28;20030;-61
2022/03/30 07:00:31;;;;;;;0.35;0.35;;;8.20;99.90;;;;;;4994132;28;20026;-61
2022/03/30 07:02:57;;;;;;;7.13;2.45;;;8.20;99.90;;;;;;4992487;28;20037;-61
2022/03/30 07:05:23;;;;;;;3.20;2.08;;;8.30;99.90;;;;;;4993828;28;20034;-61
2022/03/30 07:10:33;;;;;;;0.98;0.98;;;8.20;99.90;;;;;;4993664;28;20493;-61
2022/03/30 07:13:02;;;;;;;1.75;1.65;;;8.20;99.90;;;;;;4993424;28;20397;-61
2022/03/30 07:15:28;;;;;;;0.90;0.90;;;8.20;99.90;;;;;;4976141;28;20458;-61
2022/03/30 07:18:00;;;;;;;1.65;1.10;;;8.20;99.90;;;;;;4993281;28;20077;-60
2022/03/30 07:20:28;;;;;;;2.20;2.00;;;8.10;99.90;;;;;;4977036;28;20030;-61
2022/03/30 07:22:55;;;;;;;0.90;0.90;;;8.10;99.90;;;;;;4960275;28;20070;-61
2022/03/30 07:25:22;;;;;;;4.03;1.45;;;8.10;99.90;;;;;;4993437;28;20026;-61
2022/03/30 07:27:53;;;;;;;2.22;1.95;;;8.00;99.90;;;;;;4993284;28;20072;-60
2022/03/30 07:30:22;;;;;;;0.35;0.35;;;8.00;99.90;;;;;;4975840;28;20037;-61
2022/03/30 07:32:50;;;;;;;0.93;0.93;;;8.00;99.90;;;;;;4975767;28;20549;-61
2022/03/30 07:35:19;;;;;;;0.75;0.60;;;8.00;99.90;;;;;;4975930;28;20478;-61
2022/03/30 07:37:46;;;;;;;1.90;1.80;;;8.00;99.90;;;;;;4975686;28;20034;-60
2022/03/30 07:40:16;;;;;;;4.80;2.67;;;8.00;99.90;;;;;;4993512;28;20093;-61
2022/03/30 07:42:43;;;;;;;1.25;0.90;;;8.00;99.90;;;;;;4975909;28;20521;-61
2022/03/30 07:45:10;;;;;;;1.50;1.20;;;8.00;99.90;;;;;;4993095;28;20030;-61
2022/03/30 07:47:36;;;;;;;1.08;1.02;;;7.90;99.90;;;;;;4974582;28;20034;-60
2022/03/30 07:50:06;;;;;;;1.85;1.33;;;8.00;99.90;;;;;;4975865;28;20034;-61
2022/03/30 07:52:31;;;;;;;1.38;1.27;;;8.00;99.90;;;;;;4992923;28;20073;-61
2022/03/30 07:54:57;;;;;;;11.68;3.13;;;8.10;99.90;;;;;;4992679;28;20414;-61
2022/03/30 07:57:26;;;;;;;0.85;0.85;;;8.10;99.90;;;;;;4992446;28;20034;-61
2022/03/30 08:00:00;;;;;;;10.40;4.28;;;8.20;99.90;;;;;;4993029;28;20485;-61
2022/03/30 08:02:27;;;;;;;0.35;0.35;;;8.20;99.90;;;;;;4975713;28;20034;-61
2022/03/30 08:04:55;;;;;;;6.45;3.47;;;8.20;99.90;;;;;;4958958;28;20026;-61
2022/03/30 08:07:22;;;;;;;0.63;0.63;;;8.20;99.90;;;;;;4992438;28;20027;-61
2022/03/30 08:09:48;;;;;;;1.95;1.65;;;8.20;99.90;;;;;;4992648;28;20026;-61
2022/03/30 08:12:15;;;;;;;2.28;1.55;;;8.20;99.90;;;;;;4975030;28;20394;-61
2022/03/30 08:14:42;;;;;;;4.47;3.13;;;8.30;99.90;;;;;;4992034;28;20022;-61
2022/03/30 08:17:10;;;;;;;3.22;1.02;;;8.30;99.90;;;;;;4974792;28;20027;-61
2022/03/30 08:19:36;;;;;;;1.50;1.40;;;8.20;99.90;;;;;;4974852;28;20031;-60
2022/03/30 08:24:47;;;;;;;1.15;1.15;;;8.20;99.90;;;;;;4992187;28;20707;-60
2022/03/30 08:27:19;;;;;;;1.35;1.00;;;8.20;99.90;;;;;;4974498;28;20042;-61
2022/03/30 08:29:46;;;;;;;0.82;0.82;;;8.20;99.90;;;;;;4975567;28;20031;-60
2022/03/30 08:32:13;;;;;;;1.85;1.17;;;8.30;99.90;;;;;;4975099;28;20035;-61
2022/03/30 08:34:40;;;;;;;3.75;2.95;;;8.30;99.90;;;;;;4992265;28;20080;-60
2022/03/30 08:37:09;;;;;;;1.88;1.77;;;8.30;99.90;;;;;;4974185;28;20052;-61
2022/03/30 08:39:35;;;;;;;9.07;3.53;;;8.20;99.90;;;;;;4959023;28;20062;-61
2022/03/30 08:42:07;;;;;;;1.80;1.70;;;8.20;99.90;;;;;;4991604;28;20085;-61
2022/03/30 08:44:36;;;;;;;1.02;0.98;;;8.10;99.90;;;;;;4974901;28;20106;-61
2022/03/30 08:47:03;;;;;;;1.42;1.35;;;8.10;99.90;;;;;;4958062;28;20023;-61
2022/03/30 08:49:33;;;;;;;0.20;0.20;;;8.10;99.90;;;;;;4974991;28;20049;-60
2022/03/30 08:52:02;;;;;;;1.13;1.13;;;8.10;99.90;;;;;;4992242;28;20530;-61
2022/03/30 08:54:31;;;;;;;1.15;1.15;;;8.10;99.90;;;;;;4974442;28;20092;-61
2022/03/30 08:56:56;;;;;;;3.10;2.58;;;8.10;99.90;;;;;;4974489;28;20494;-61
2022/03/30 08:59:24;;;;;;;2.92;1.65;;;8.20;99.90;;;;;;4973316;28;20026;-61
2022/03/30 09:01:54;;;;;;;4.18;3.83;;;8.20;99.90;;;;;;4991423;28;20034;-61
2022/03/30 09:04:21;;;;;;;1.33;1.13;;;8.20;99.90;;;;;;4991192;28;20033;-61
2022/03/30 09:06:59;;;;;;;1.65;1.58;;;8.20;99.90;;;;;;4991354;28;20165;-61
2022/03/30 09:09:38;;;;;;;3.03;1.80;;;8.20;99.90;;;;;;4991485;28;20030;-61
2022/03/30 09:12:11;;;;;;;2.92;1.88;;;8.20;99.90;;;;;;4991533;28;20031;-60
2022/03/30 09:14:42;;;;;;;2.38;2.25;;;8.30;99.90;;;;;;4974175;28;20120;-61
2022/03/30 09:17:09;;;;;;;1.83;1.73;;;8.30;99.90;;;;;;4974440;28;20049;-61
2022/03/30 09:19:38;;;;;;;0.52;0.52;;;8.30;99.90;;;;;;4974467;28;20034;-61
2022/03/30 09:22:07;;;;;;;1.10;1.00;;;8.30;99.90;;;;;;4974163;28;20042;-61
2022/03/30 09:24:36;;;;;;;1.95;1.77;;;8.30;99.90;;;;;;4957798;28;20033;-60
2022/03/30 09:27:05;;;;;;;2.00;1.67;;;8.40;99.90;;;;;;4990686;28;20557;-61
2022/03/30 09:29:37;;;;;;;1.08;0.85;;;8.40;99.90;;;;;;4991344;28;20125;-61
2022/03/30 09:32:07;;;;;;;1.90;1.75;;;8.40;99.90;;;;;;4973266;28;20065;-61
2022/03/30 09:34:45;;;;;;;0.97;0.97;;;8.40;99.90;;;;;;4974174;28;20030;-61
2022/03/30 09:37:11;;;;;;;0.82;0.82;;;8.40;99.90;;;;;;4991111;28;20050;-61
2022/03/30 09:39:38;;;;;;;1.30;1.27;;;8.40;99.90;;;;;;4974169;28;20073;-61
2022/03/30 09:42:08;;;;;;;0.32;0.32;;;8.40;99.90;;;;;;4973918;28;20409;-61
2022/03/30 09:44:52;;;;;;;2.45;2.25;;;8.40;99.90;;;;;;4990872;28;20081;-61
2022/03/30 09:47:19;;;;;;;2.08;1.95;;;8.50;99.90;;;;;;4973000;28;20437;-61
2022/03/30 09:49:52;;;;;;;4.00;2.13;;;8.50;99.90;;;;;;4990803;28;20405;-61
2022/03/30 09:52:23;;;;;;;0.20;0.20;;;8.50;99.90;;;;;;4973534;28;20038;-61
2022/03/30 09:54:53;;;;;;;0.70;0.70;;;8.60;99.90;;;;;;4990605;28;20035;-61
2022/03/30 09:57:32;;;;;;;3.70;1.27;;;8.50;99.90;;;;;;4990524;28;20038;-61
2022/03/30 10:00:10;;;;;;;0.85;0.85;;;8.60;99.90;;;;;;4990974;28;20034;-61
2022/03/30 10:02:49;;;;;;;1.08;0.95;;;8.60;99.90;;;;;;4990867;28;20501;-61
2022/03/30 10:05:21;;;;;;;19.98;1.42;;;8.60;99.90;;;;;;4990890;28;20038;-61
2022/03/30 10:07:48;;;;;;;0.65;0.65;;;8.60;99.90;;;;;;4990508;28;20026;-61
2022/03/30 10:10:19;;;;;;;2.20;2.08;;;8.60;99.90;;;;;;4974452;28;20142;-61
2022/03/30 10:12:45;;;;;;;1.55;1.45;;;8.70;99.90;;;;;;4977685;28;20038;-61
2022/03/30 10:15:12;;;;;;;2.55;2.35;;;8.70;99.90;;;;;;4994451;28;20042;-61
2022/03/30 10:17:39;;;;;;;8.73;2.38;;;8.70;99.90;;;;;;4977124;28;20113;-61
2022/03/30 10:20:08;;;;;;;3.97;1.95;;;8.70;99.90;;;;;;4977078;28;20091;-61
2022/03/30 10:23:09;;;;;;;1.65;1.55;;;8.80;99.90;;;;;;4994214;28;20058;-61
2022/03/30 10:26:04;;;;;;;2.53;2.37;;;8.90;99.90;;;;;;4994996;28;20026;-61
2022/03/30 10:28:54;;;;;;;3.97;1.73;;;8.90;99.90;;;;;;4994085;28;20057;-61
2022/03/30 10:31:22;;;;;;;4.50;2.53;;;9.00;99.90;;;;;;4994712;28;20033;-60
2022/03/30 10:33:47;;;;;;;0.90;0.88;;;9.10;99.90;;;;;;4994132;28;20082;-60
2022/03/30 10:36:28;;;;;;;0.50;0.50;;;9.20;99.90;;;;;;4976892;28;20505;-61
2022/03/30 10:39:27;;;;;;;0.77;0.77;;;9.20;99.90;;;;;;4994234;28;20030;-61
2022/03/30 10:42:06;;;;;;;0.47;0.32;;;9.30;99.90;;;;;;4994298;28;20081;-61
2022/03/30 10:44:40;;;;;;;2.88;2.47;;;9.30;99.90;;;;;;4994491;28;20065;-61
2022/03/30 10:47:10;;;;;;;4.22;2.63;;;9.30;99.90;;;;;;4994234;28;20544;-61
2022/03/30 10:49:38;;;;;;;1.23;1.15;;;9.40;99.90;;;;;;4994206;28;20061;-61
2022/03/30 10:52:34;;;;;;;0.80;0.80;;;9.50;99.90;;;;;;4994266;28;20030;-61
2022/03/30 10:55:15;;;;;;;0.38;0.38;;;9.60;99.90;;;;;;4976365;28;20053;-61
2022/03/30 10:58:01;;;;;;;0.75;0.75;;;9.60;99.90;;;;;;4976375;28;20112;-61
2022/03/30 11:00:40;;;;;;;4.60;1.70;;;9.60;99.90;;;;;;4993858;28;20103;-61
2022/03/30 11:03:16;;;;;;;0.85;0.82;;;9.70;99.90;;;;;;4993664;28;20034;-61
2022/03/30 11:05:59;;;;;;;0.13;0.13;;;9.70;99.90;;;;;;4993291;28;20030;-61
2022/03/30 11:08:34;;;;;;;10.05;1.35;;;9.60;99.90;;;;;;4978312;28;20058;-61
2022/03/30 11:11:03;;;;;;;2.00;1.45;;;9.70;99.90;;;;;;4993962;28;20030;-61
2022/03/30 11:13:28;;;;;;;1.02;1.02;;;9.80;99.90;;;;;;4993518;28;20442;-61
2022/03/30 11:15:58;;;;;;;2.40;2.30;;;9.90;99.90;;;;;;4994027;28;20034;-61
2022/03/30 11:18:24;;;;;;;1.98;1.42;;;9.80;99.90;;;;;;4993241;28;20054;-61
2022/03/30 11:21:08;;;;;;;7.90;3.05;;;9.90;99.90;;;;;;4960153;28;20031;-61
2022/03/30 11:23:38;;;;;;;0.68;0.68;;;9.90;99.90;;;;;;4992995;28;20038;-61
2022/03/30 11:26:05;;;;;;;0.45;0.45;;;9.90;99.90;;;;;;4975644;28;20030;-61
2022/03/30 11:28:36;;;;;;;2.05;1.95;;;9.90;99.90;;;;;;4975405;28;20023;-61
2022/03/30 11:31:05;;;;;;;1.88;1.75;;;9.80;99.90;;;;;;4993225;28;20042;-61
2022/03/30 11:33:35;;;;;;;1.08;1.08;;;9.80;99.90;;;;;;4993266;28;20026;-61
2022/03/30 11:36:04;;;;;;;1.08;1.08;;;9.90;99.90;;;;;;4993391;28;20035;-61
2022/03/30 11:38:39;;;;;;;2.20;1.02;;;10.00;99.90;;;;;;4993115;28;20034;-61
2022/03/30 11:41:08;;;;;;;1.92;1.58;;;10.10;99.90;;;;;;4975738;28;20681;-61
2022/03/30 11:46:32;;;;;;;0.60;0.60;;;10.10;99.90;;;;;;4984180;28;20030;-61
2022/03/30 11:49:06;;;;;;;1.67;1.58;;;10.10;99.90;;;;;;4991304;28;20659;-61
2022/03/30 11:51:33;;;;;;;0.73;0.73;;;10.20;99.90;;;;;;4992214;28;20034;-61
2022/03/30 11:54:16;;;;;;;0.57;0.55;;;10.20;99.90;;;;;;4992592;28;20045;-61
2022/03/30 11:56:43;;;;;;;1.05;1.00;;;10.20;99.90;;;;;;4991182;28;20565;-61
2022/03/30 11:59:09;;;;;;;1.00;1.00;;;10.20;99.90;;;;;;4971713;28;20034;-61
2022/03/30 12:01:35;;;;;;;2.55;2.25;;;10.20;99.90;;;;;;4983510;28;20764;-62
2022/03/30 12:04:03;;;;;;;5.53;1.98;;;10.30;99.90;;;;;;4992676;28;20034;-61
2022/03/30 12:06:29;;;;;;;1.17;0.95;;;10.40;99.90;;;;;;4975064;28;20026;-61
2022/03/30 12:08:57;;;;;;;8.25;3.28;;;10.50;99.90;;;;;;4992421;28;20027;-62
2022/03/30 12:11:25;;;;;;;2.53;1.45;;;10.60;99.90;;;;;;4992072;28;20034;-62
2022/03/30 12:13:59;;;;;;;1.42;0.98;;;10.60;99.90;;;;;;4974620;28;20482;-63
2022/03/30 12:16:32;;;;;;;1.92;1.00;;;10.70;99.90;;;;;;4974534;28;20034;-62
2022/03/30 12:19:01;;;;;;;3.60;0.68;;;10.90;99.90;;;;;;4992366;28;20038;-61
2022/03/30 12:21:38;;;;;;;0.75;0.75;;;11.10;99.90;;;;;;4992474;28;20030;-61
2022/03/30 12:24:11;;;;;;;0.90;0.65;;;11.20;99.90;;;;;;4975186;28;20046;-61
2022/03/30 12:26:38;;;;;;;2.10;1.58;;;11.40;99.90;;;;;;4991603;28;20081;-61
2022/03/30 12:29:14;;;;;;;1.55;1.45;;;11.50;99.90;;;;;;4959142;28;20128;-60
2022/03/30 12:31:47;;;;;;;0.93;0.93;;;11.60;99.90;;;;;;4992070;28;20413;-61
2022/03/30 12:34:17;;;;;;;2.03;1.50;;;11.60;99.90;;;;;;4992011;28;20065;-61
2022/03/30 12:36:47;;;;;;;2.93;1.70;;;11.80;99.90;;;;;;4987574;28;20096;-61
2022/03/30 12:39:45;;;;;;;0.55;0.55;;;11.90;99.90;;;;;;4973886;28;20482;-61
2022/03/30 12:42:24;;;;;;;1.75;0.85;;;11.80;99.90;;;;;;4957933;28;20477;-61
2022/03/30 12:44:56;;;;;;;1.35;0.85;;;11.80;99.90;;;;;;4990898;28;20035;-61
2022/03/30 12:47:25;;;;;;;3.13;1.35;;;11.70;99.90;;;;;;4966338;28;20114;-60
2022/03/30 12:49:53;;;;;;;1.05;1.00;;;11.60;99.90;;;;;;4991717;28;20023;-61
2022/03/30 12:52:20;;;;;;;0.77;0.77;;;11.50;99.90;;;;;;4991482;28;20046;-61
2022/03/30 12:54:48;;;;;;;2.20;0.38;;;11.20;99.90;;;;;;4974208;28;20037;-61
2022/03/30 12:57:26;;;;;;;5.88;1.23;;;11.10;99.90;;;;;;4983493;23;20051;-61
2022/03/30 12:59:52;;;;;;;0.63;0.63;;;11.00;99.90;;;;;;4969564;28;20045;-61
2022/03/30 13:02:23;;;;;;;1.65;1.52;;;10.90;99.90;;;;;;4971904;28;20046;-61
2022/03/30 13:04:55;;;;;;;0.52;0.52;;;11.00;99.90;;;;;;4955511;28;20033;-61
2022/03/30 13:07:25;;;;;;;0.88;0.88;;;11.00;99.90;;;;;;4969019;28;20561;-61
2022/03/30 13:10:02;;;;;;;1.23;1.15;;;10.90;99.90;;;;;;4955232;28;20026;-61
2022/03/30 13:12:55;;;;;;;0.73;0.73;;;10.80;99.90;;;;;;4971639;28;20043;-61
2022/03/30 13:15:24;;;;;;;6.25;1.20;;;10.90;99.90;;;;;;4972066;28;20030;-61